»·PEaware :: N441PW KMOT-KGFK

N441PW :: KMOT-KGFK

FLIGHT INFORMATION

Flight Status: Arrived
Operator: Privately registered:
United States
More flights under this callsign
Pilot: Stacy K. (11621)
Aircraft: CESSNA 404 TITAN
(C404)
More flights by this aircraft type
Origin: KMOT Minot Intl
United States
Destination: KGFK Grand Forks Intl
United States
More flights between these airports :: More routes between these airports
Route: MOT RDR GFK
File this flight plan on PilotEdge
Remarks:
Altitude:
(Current/Filed)
5,500ft
Speed:
(Current/Filed)
180kts
Departed: 13-Apr-18 04:59 AM
Arrived: 13-Apr-18 06:02 AM
Distance/Time
Traveled:
165nm/1:03
Distance/Time
To Go:
Arrived

Flight Plot

Page will automatically refresh every two minutes.

Flight plan parsing failed; only flown route is shown


Map Options




Map Legend


Flown Route
Filed Route
Departure Airport
Arrival Airport
Navaid (VOR, NDB)
Fix

Horizontal Profiles

Position Reports

Time Latitude Longitude Heading Altitude Ground
Speed
13-Apr-18 04:51 48.262315 -101.293744 4 1720ft 0kts
13-Apr-18 04:52 48.262316 -101.293744 4 1720ft 0kts
13-Apr-18 04:53 48.261966 -101.292389 87 1720ft 15kts
13-Apr-18 04:54 48.260322 -101.284376 138 1720ft 19kts
13-Apr-18 04:55 48.255510 -101.277978 138 1720ft 25kts
13-Apr-18 04:56 48.251095 -101.272065 139 1720ft 17kts
13-Apr-18 04:57 48.249363 -101.268356 47 1720ft 9kts
13-Apr-18 04:58 48.266703 -101.286348 1 2319ft 118kts
13-Apr-18 04:59 48.268633 -101.244534 141 3390ft 148kts
13-Apr-18 05:00 48.236081 -101.214108 81 4375ft 149kts
13-Apr-18 05:01 48.246097 -101.151508 78 5354ft 162kts
13-Apr-18 05:02 48.246471 -101.077609 91 5500ft 186kts
13-Apr-18 05:03 48.242360 -101.002327 92 5491ft 179kts
13-Apr-18 05:04 48.237737 -100.928440 92 5493ft 177kts
13-Apr-18 05:05 48.232999 -100.854968 92 5492ft 176kts
13-Apr-18 05:06 48.228212 -100.781680 92 5492ft 176kts
13-Apr-18 05:07 48.223375 -100.708454 92 5490ft 176kts
13-Apr-18 05:08 48.218475 -100.635195 92 5490ft 176kts
13-Apr-18 05:09 48.213599 -100.562212 92 5489ft 175kts
13-Apr-18 05:10 48.208563 -100.489146 92 5488ft 176kts
13-Apr-18 05:11 48.203587 -100.416132 92 5489ft 176kts
13-Apr-18 05:12 48.198517 -100.343196 92 5489ft 175kts
13-Apr-18 05:13 48.193360 -100.270267 92 5491ft 175kts
13-Apr-18 05:14 48.188290 -100.197824 93 5485ft 175kts
13-Apr-18 05:15 48.183131 -100.125732 93 5489ft 173kts
13-Apr-18 05:16 48.177916 -100.053866 93 5491ft 173kts
13-Apr-18 05:17 48.172691 -99.981550 92 5484ft 176kts
13-Apr-18 05:18 48.167225 -99.907435 92 5507ft 181kts
13-Apr-18 05:19 48.161696 -99.832834 92 5505ft 182kts
13-Apr-18 05:20 48.156123 -99.757684 92 5507ft 182kts
13-Apr-18 05:21 48.150469 -99.682334 92 5504ft 182kts
13-Apr-18 05:22 48.144738 -99.607254 92 5508ft 181kts
13-Apr-18 05:23 48.138973 -99.532103 92 5504ft 181kts
13-Apr-18 05:24 48.133166 -99.457323 92 5506ft 180kts
13-Apr-18 05:25 48.127365 -99.382629 92 5503ft 181kts
13-Apr-18 05:26 48.121492 -99.307990 92 5500ft 180kts
13-Apr-18 05:27 48.115523 -99.232348 92 5492ft 188kts
13-Apr-18 05:28 48.109102 -99.153801 93 5496ft 190kts
13-Apr-18 05:29 48.102780 -99.075118 93 5493ft 190kts
13-Apr-18 05:30 48.096362 -98.996449 92 5489ft 190kts
13-Apr-18 05:31 48.089900 -98.917995 93 5491ft 190kts
13-Apr-18 05:32 48.083404 -98.839800 92 5489ft 189kts
13-Apr-18 05:33 48.076919 -98.761908 93 5489ft 189kts
13-Apr-18 05:34 48.070333 -98.683688 92 5489ft 189kts
13-Apr-18 05:35 48.063700 -98.605948 93 5486ft 187kts
13-Apr-18 05:36 48.057092 -98.528570 93 5479ft 188kts
13-Apr-18 05:37 48.050450 -98.451053 93 5484ft 188kts
13-Apr-18 05:38 48.043687 -98.373665 93 5485ft 188kts
13-Apr-18 05:39 48.036945 -98.296467 92 5483ft 187kts
13-Apr-18 05:40 48.030183 -98.219509 92 5486ft 186kts
13-Apr-18 05:41 48.023047 -98.142752 99 5145ft 189kts
13-Apr-18 05:42 48.004516 -98.069226 106 4475ft 186kts
13-Apr-18 05:43 47.982717 -97.999526 104 3799ft 183kts
13-Apr-18 05:44 47.966885 -97.928464 97 3130ft 179kts
13-Apr-18 05:45 47.956332 -97.858076 96 2955ft 169kts
13-Apr-18 05:46 47.945680 -97.789811 100 2952ft 169kts
13-Apr-18 05:47 47.931352 -97.720992 101 2942ft 176kts
13-Apr-18 05:48 47.916590 -97.651713 101 3027ft 175kts
13-Apr-18 05:49 47.901516 -97.581858 104 3002ft 178kts
13-Apr-18 05:50 47.879505 -97.515208 116 2990ft 182kts
13-Apr-18 05:51 47.852363 -97.451939 116 2994ft 181kts
13-Apr-18 05:52 47.860919 -97.399675 16 2978ft 141kts
13-Apr-18 05:53 47.895549 -97.391763 51 2620ft 130kts
13-Apr-18 05:54 47.876302 -97.333143 121 2997ft 189kts
13-Apr-18 05:55 47.843901 -97.270622 121 2990ft 183kts
13-Apr-18 05:56 47.822719 -97.210115 60 3001ft 156kts
13-Apr-18 05:57 47.855343 -97.179808 5 2349ft 121kts
13-Apr-18 05:58 47.888282 -97.181302 3 1824ft 125kts
13-Apr-18 05:59 47.919896 -97.181138 1 1233ft 96kts
13-Apr-18 06:00 47.945123 -97.181180 2 850ft 80kts
13-Apr-18 06:01 47.950891 -97.178999 139 849ft 14kts
13-Apr-18 06:02 47.948555 -97.178159 179 849ft 11kts
13-Apr-18 06:03 47.945317 -97.178150 179 849ft 4kts
13-Apr-18 06:04 47.944590 -97.177559 177 849ft 0kts

Navigation Log

Ident Type
Flight plan parsing failed, navigation log unavailable